createdAt,value
2022-08-28T00:02:28.599Z,17.74
2022-08-28T00:07:32.528Z,17.61
2022-08-28T00:12:38.578Z,17.56
2022-08-28T00:17:42.371Z,17.50
2022-08-28T00:22:47.116Z,17.51
2022-08-28T00:27:57.340Z,17.51
2022-08-28T00:33:03.251Z,17.49
2022-08-28T00:38:07.061Z,17.41
2022-08-28T00:43:26.231Z,17.35
2022-08-28T00:48:30.007Z,17.26
2022-08-28T00:53:33.895Z,17.15
2022-08-28T00:58:39.915Z,17.11
2022-08-28T01:03:44.304Z,17.06
2022-08-28T01:08:50.598Z,17.00
2022-08-28T01:13:57.505Z,16.95
2022-08-28T01:19:10.153Z,16.87
2022-08-28T01:24:16.058Z,16.81
2022-08-28T01:29:20.827Z,16.60
2022-08-28T01:34:24.961Z,16.59
2022-08-28T01:39:30.371Z,16.51
2022-08-28T01:44:34.123Z,16.40
2022-08-28T01:49:37.848Z,16.28
2022-08-28T01:54:43.139Z,16.23
2022-08-28T01:59:47.733Z,16.20
2022-08-28T02:04:52.593Z,16.14
2022-08-28T02:09:57.723Z,16.08
2022-08-28T02:15:01.489Z,16.03
2022-08-28T02:20:07.428Z,16.00
2022-08-28T02:25:13.883Z,15.90
2022-08-28T02:30:18.692Z,15.80
2022-08-28T02:35:25.343Z,15.72
2022-08-28T02:40:31.649Z,15.67
2022-08-28T02:45:35.728Z,15.58
2022-08-28T02:50:39.444Z,15.50
2022-08-28T02:55:45.105Z,15.45
2022-08-28T03:00:49.353Z,15.43
2022-08-28T03:05:53.258Z,15.33
2022-08-28T03:10:58.347Z,15.33
2022-08-28T03:16:02.309Z,15.31
2022-08-28T03:21:06.227Z,15.32
2022-08-28T03:26:14.363Z,15.24
2022-08-28T03:31:20.038Z,15.25
2022-08-28T03:36:26.178Z,15.23
2022-08-28T03:41:32.646Z,15.26
2022-08-28T03:46:36.446Z,15.27
2022-08-28T03:51:41.945Z,15.31
2022-08-28T03:56:47.430Z,15.28
2022-08-28T04:01:51.674Z,15.25
2022-08-28T04:06:55.361Z,15.14
2022-08-28T04:12:00.525Z,15.07
2022-08-28T04:17:04.455Z,15.05
2022-08-28T04:22:08.329Z,15.00
2022-08-28T04:27:14.700Z,14.98
2022-08-28T04:32:18.411Z,14.94
2022-08-28T04:37:22.769Z,14.91
2022-08-28T04:42:31.268Z,14.88
2022-08-28T04:47:37.075Z,14.85
2022-08-28T04:52:43.158Z,14.80
2022-08-28T04:57:48.179Z,14.73
2022-08-28T05:02:51.918Z,14.69
2022-08-28T05:07:55.608Z,14.67
2022-08-28T05:13:00.663Z,14.61
2022-08-28T05:18:04.434Z,14.57
2022-08-28T05:23:09.278Z,14.54
2022-08-28T05:28:16.820Z,14.53
2022-08-28T05:33:21.134Z,14.56
2022-08-28T05:38:24.897Z,14.55
2022-08-28T05:43:31.435Z,14.55
2022-08-28T05:48:37.028Z,14.55
2022-08-28T05:53:44.856Z,14.64
2022-08-28T05:58:50.213Z,14.68
2022-08-28T06:03:56.908Z,14.77
2022-08-28T06:09:02.448Z,14.83
2022-08-28T06:14:10.979Z,14.87
2022-08-28T06:19:15.475Z,14.98
2022-08-28T06:24:19.956Z,15.04
2022-08-28T06:29:25.083Z,15.15
2022-08-28T06:34:29.982Z,15.25
2022-08-28T06:39:33.986Z,15.39
2022-08-28T06:44:39.263Z,15.49
2022-08-28T06:49:43.075Z,15.64
2022-08-28T06:54:55.611Z,15.73
2022-08-28T07:00:01.326Z,15.85
2022-08-28T07:05:08.718Z,15.98
2022-08-28T07:10:12.516Z,16.08
2022-08-28T07:15:18.157Z,16.19
2022-08-28T07:20:22.734Z,16.33
2022-08-28T07:25:27.350Z,16.44
2022-08-28T07:30:32.452Z,16.54
2022-08-28T07:35:36.168Z,16.69
2022-08-28T07:40:39.906Z,16.83
2022-08-28T07:45:45.560Z,17.02
2022-08-28T07:50:49.428Z,17.20
2022-08-28T07:55:53.168Z,17.39
2022-08-28T08:00:59.160Z,17.55
2022-08-28T08:06:06.318Z,17.71
2022-08-28T08:11:16.591Z,17.90
2022-08-28T08:16:24.023Z,18.11
2022-08-28T08:21:30.459Z,18.26
2022-08-28T08:26:35.098Z,18.49
2022-08-28T08:31:40.952Z,18.51
2022-08-28T08:36:47.796Z,18.60
2022-08-28T08:41:55.301Z,18.52
2022-08-28T08:47:13.795Z,18.64
2022-08-28T08:52:29.145Z,18.71
2022-08-28T08:57:34.292Z,18.84
2022-08-28T09:02:44.561Z,18.99
2022-08-28T09:07:56.825Z,19.18
2022-08-28T09:13:07.413Z,19.25
2022-08-28T09:18:19.400Z,19.32
2022-08-28T09:23:24.004Z,19.33
2022-08-28T09:28:31.485Z,19.47
2022-08-28T09:33:42.089Z,19.66
2022-08-28T09:38:45.797Z,20.04
2022-08-28T09:43:49.745Z,20.26
2022-08-28T09:49:09.289Z,20.40
2022-08-28T09:54:20.285Z,20.89
2022-08-28T09:59:25.936Z,21.96
2022-08-28T10:04:50.779Z,23.08
2022-08-28T10:10:02.248Z,23.73
2022-08-28T10:15:19.036Z,24.80
2022-08-28T10:20:35.203Z,25.54
2022-08-28T10:25:44.562Z,26.16
2022-08-28T10:30:59.487Z,27.03
2022-08-28T10:36:34.167Z,27.49
2022-08-28T10:41:44.202Z,27.97
2022-08-28T10:46:51.739Z,28.61
2022-08-28T10:52:02.112Z,29.17
2022-08-28T10:57:15.879Z,29.47
2022-08-28T11:02:22.742Z,28.71
2022-08-28T11:07:33.917Z,27.81
2022-08-28T11:12:44.188Z,27.99
2022-08-28T11:17:48.652Z,28.89
2022-08-28T11:22:59.679Z,29.74
2022-08-28T11:28:18.492Z,29.02
2022-08-28T11:33:42.182Z,28.93
2022-08-28T11:39:21.771Z,28.34
2022-08-28T11:44:29.440Z,27.93
2022-08-28T11:49:43.163Z,27.16
2022-08-28T11:54:57.476Z,26.64
2022-08-28T12:00:08.959Z,26.36
2022-08-28T12:05:50.455Z,26.50
2022-08-28T12:10:59.471Z,26.11
2022-08-28T12:16:08.114Z,25.97
2022-08-28T12:21:18.396Z,27.53
2022-08-28T12:26:27.540Z,27.84
2022-08-28T12:32:14.473Z,27.08
2022-08-28T12:37:51.503Z,27.53
2022-08-28T12:43:00.494Z,28.05
2022-08-28T12:48:14.091Z,29.42
2022-08-28T12:53:19.532Z,28.70
2022-08-28T12:58:32.975Z,28.03
2022-08-28T13:03:43.688Z,27.99
2022-08-28T13:08:50.041Z,28.90
2022-08-28T13:13:55.098Z,29.36
2022-08-28T13:19:13.858Z,28.16
2022-08-28T13:24:41.357Z,27.75
2022-08-28T13:29:58.099Z,28.21
2022-08-28T13:35:08.616Z,28.97
2022-08-28T13:40:38.204Z,29.81
2022-08-28T13:45:43.377Z,30.34
2022-08-28T13:50:49.171Z,31.92
2022-08-28T13:55:52.946Z,32.05
2022-08-28T14:00:58.385Z,31.82
2022-08-28T14:06:02.864Z,31.00
2022-08-28T14:11:07.238Z,30.51
2022-08-28T14:16:13.877Z,29.94
2022-08-28T14:21:18.472Z,30.49
2022-08-28T14:26:22.210Z,31.55
2022-08-28T14:31:27.679Z,32.62
2022-08-28T14:36:32.528Z,33.35
2022-08-28T14:41:36.827Z,33.77
2022-08-28T14:46:44.585Z,34.02
2022-08-28T14:51:49.196Z,34.25
2022-08-28T14:56:53.556Z,33.82
2022-08-28T15:02:00.304Z,32.26
2022-08-28T15:07:06.508Z,31.70
2022-08-28T15:12:11.254Z,31.38
2022-08-28T15:17:16.481Z,31.32
2022-08-28T15:22:27.285Z,31.14
2022-08-28T15:27:31.286Z,31.45
2022-08-28T15:32:36.635Z,31.13
2022-08-28T15:37:40.385Z,30.98
2022-08-28T15:42:44.627Z,31.12
2022-08-28T15:47:49.780Z,31.20
2022-08-28T15:52:53.583Z,30.77
2022-08-28T15:57:57.954Z,30.62
2022-08-28T16:03:03.416Z,30.49
2022-08-28T16:08:07.219Z,30.44
2022-08-28T16:13:11.046Z,29.76
2022-08-28T16:18:17.372Z,30.32
2022-08-28T16:23:21.552Z,30.16
2022-08-28T16:28:25.989Z,29.81
2022-08-28T16:33:32.592Z,29.79
2022-08-28T16:38:39.006Z,29.55
2022-08-28T16:43:43.430Z,29.23
2022-08-28T16:48:49.120Z,28.69
2022-08-28T16:53:53.027Z,28.61
2022-08-28T16:58:57.145Z,28.17
2022-08-28T17:04:02.419Z,27.44
2022-08-28T17:09:06.292Z,27.00
2022-08-28T17:14:12.031Z,26.89
2022-08-28T17:19:17.513Z,26.40
2022-08-28T17:24:21.619Z,26.28
2022-08-28T17:29:25.475Z,25.96
2022-08-28T17:34:30.907Z,25.90
2022-08-28T17:39:34.668Z,25.54
2022-08-28T17:44:38.623Z,25.41
2022-08-28T17:49:44.488Z,25.07
2022-08-28T17:54:48.362Z,24.92
2022-08-28T17:59:52.668Z,24.70
2022-08-28T18:04:58.088Z,24.60
2022-08-28T18:10:07.093Z,24.35
2022-08-28T18:15:13.719Z,24.15
2022-08-28T18:20:19.596Z,24.04
2022-08-28T18:25:41.684Z,23.79
2022-08-28T18:30:49.065Z,23.66
2022-08-28T18:35:55.082Z,23.51
2022-08-28T18:40:59.900Z,23.25
2022-08-28T18:46:05.231Z,23.23
2022-08-28T18:51:12.258Z,23.09
2022-08-28T18:56:16.961Z,22.78
2022-08-28T19:01:21.068Z,22.56
2022-08-28T19:06:26.355Z,22.50
2022-08-28T19:11:31.453Z,22.33
2022-08-28T19:16:35.347Z,22.27
2022-08-28T19:21:40.597Z,22.21
2022-08-28T19:26:45.213Z,22.02
2022-08-28T19:31:48.959Z,21.98
2022-08-28T19:36:54.203Z,21.87
2022-08-28T19:41:57.952Z,21.73
2022-08-28T19:47:01.976Z,21.61
2022-08-28T19:52:07.244Z,21.52
2022-08-28T19:57:11.161Z,21.35
2022-08-28T20:02:15.059Z,21.25
2022-08-28T20:07:20.278Z,21.10
2022-08-28T20:12:24.733Z,21.03
2022-08-28T20:17:28.590Z,20.89
2022-08-28T20:22:33.680Z,20.80
2022-08-28T20:27:37.845Z,20.62
2022-08-28T20:32:41.962Z,20.53
2022-08-28T20:37:47.511Z,20.45
2022-08-28T20:42:51.232Z,20.35
2022-08-28T20:47:55.247Z,20.22
2022-08-28T20:53:02.613Z,20.12
2022-08-28T20:58:06.450Z,20.05
2022-08-28T21:03:12.198Z,19.90
2022-08-28T21:08:17.718Z,19.83
2022-08-28T21:13:21.774Z,19.78
2022-08-28T21:18:25.535Z,19.74
2022-08-28T21:23:33.191Z,19.59
2022-08-28T21:28:37.041Z,19.57
2022-08-28T21:33:43.282Z,19.47
2022-08-28T21:38:48.502Z,19.39
2022-08-28T21:43:52.211Z,19.30
2022-08-28T21:48:56.293Z,19.24
2022-08-28T21:54:01.370Z,19.15
2022-08-28T21:59:05.290Z,19.07
2022-08-28T22:04:09.087Z,18.97
2022-08-28T22:09:14.165Z,18.85
2022-08-28T22:14:17.857Z,18.77
2022-08-28T22:19:21.591Z,18.64
2022-08-28T22:24:26.644Z,18.56
2022-08-28T22:29:36.395Z,18.50
2022-08-28T22:34:42.745Z,18.46
2022-08-28T22:39:48.006Z,18.32
2022-08-28T22:44:51.756Z,18.21
2022-08-28T22:49:58.315Z,18.13
2022-08-28T22:55:03.434Z,18.06
2022-08-28T23:00:13.817Z,18.03
2022-08-28T23:05:17.993Z,17.97
2022-08-28T23:10:42.142Z,17.87
2022-08-28T23:15:48.536Z,17.82
2022-08-28T23:20:52.812Z,17.75
2022-08-28T23:25:57.922Z,17.68
2022-08-28T23:31:01.680Z,17.64
2022-08-28T23:36:06.247Z,17.56
2022-08-28T23:41:12.141Z,17.50
2022-08-28T23:46:17.283Z,17.46
2022-08-28T23:51:22.102Z,17.37
2022-08-28T23:56:28.204Z,17.30
